createdAt,value
2017-06-27T00:00:29.784Z,1008.4
2017-06-27T00:01:40.036Z,1008.42
2017-06-27T00:02:50.315Z,1008.39
2017-06-27T00:04:00.650Z,1008.38
2017-06-27T00:05:10.591Z,1008.37
2017-06-27T00:06:21.112Z,1008.34
2017-06-27T00:07:31.362Z,1008.37
2017-06-27T00:08:41.627Z,1008.32
2017-06-27T00:09:51.890Z,1008.35
2017-06-27T00:11:01.830Z,1008.34
2017-06-27T00:12:12.338Z,1008.37
2017-06-27T00:13:22.288Z,1008.35
2017-06-27T00:14:32.564Z,1008.31
2017-06-27T00:15:42.827Z,1008.29
2017-06-27T00:16:53.072Z,1008.33
2017-06-27T00:18:03.572Z,1008.36
2017-06-27T00:19:14.059Z,1008.36
2017-06-27T00:20:24.315Z,1008.37
2017-06-27T00:21:34.582Z,1008.35
2017-06-27T00:22:44.224Z,1008.37
2017-06-27T00:23:54.737Z,1008.38
2017-06-27T00:25:04.703Z,1008.4
2017-06-27T00:26:14.330Z,1008.42
2017-06-27T00:27:24.620Z,1008.46
2017-06-27T00:28:34.573Z,1008.43
2017-06-27T00:29:45.088Z,1008.45
2017-06-27T00:30:55.344Z,1008.44
2017-06-27T00:32:05.753Z,1008.42
2017-06-27T00:33:16.025Z,1008.45
2017-06-27T00:34:26.283Z,1008.47
2017-06-27T00:35:36.803Z,1008.47
2017-06-27T00:36:46.752Z,1008.44
2017-06-27T00:37:57.022Z,1008.41
2017-06-27T00:39:07.273Z,1008.4
2017-06-27T00:40:17.515Z,1008.38
2017-06-27T00:41:28.017Z,1008.41
2017-06-27T00:42:37.961Z,1008.38
2017-06-27T00:43:47.895Z,1008.46
2017-06-27T00:44:57.837Z,1008.46
2017-06-27T00:46:07.791Z,1008.52
2017-06-27T00:47:18.301Z,1008.49
2017-06-27T00:48:28.579Z,1008.45
2017-06-27T00:49:38.210Z,1008.44
2017-06-27T00:50:48.467Z,1008.43
2017-06-27T00:51:58.713Z,1008.47
2017-06-27T00:53:09.218Z,1008.42
2017-06-27T00:54:19.161Z,1008.45
2017-06-27T00:55:29.423Z,1008.41
2017-06-27T00:56:39.684Z,1008.39
2017-06-27T00:57:49.633Z,1008.39
2017-06-27T00:59:00.145Z,1008.39
2017-06-27T01:00:10.409Z,1008.36
2017-06-27T01:01:20.664Z,1008.33
2017-06-27T01:02:30.944Z,1008.34
2017-06-27T01:03:40.905Z,1008.33
2017-06-27T01:04:51.419Z,1008.39
2017-06-27T01:06:01.370Z,1008.36
2017-06-27T01:07:11.629Z,1008.34
2017-06-27T01:08:21.886Z,1008.29
2017-06-27T01:09:32.135Z,1008.29
2017-06-27T01:10:42.624Z,1008.3
2017-06-27T01:11:52.272Z,1008.31
2017-06-27T01:13:02.531Z,1008.25
2017-06-27T01:14:12.793Z,1008.31
2017-06-27T01:15:23.045Z,1008.28
2017-06-27T01:16:33.229Z,1008.31
2017-06-27T01:17:43.525Z,1008.32
2017-06-27T01:18:53.488Z,1008.32
2017-06-27T01:20:03.750Z,1008.31
2017-06-27T01:21:14.011Z,1008.31
2017-06-27T01:22:24.206Z,1008.32
2017-06-27T01:23:34.457Z,1008.31
2017-06-27T01:24:44.388Z,1008.29
2017-06-27T01:25:54.650Z,1008.25
2017-06-27T01:27:04.909Z,1008.21
2017-06-27T01:28:15.399Z,1008.29
2017-06-27T01:29:25.653Z,1008.27
2017-06-27T01:30:35.910Z,1008.25
2017-06-27T01:31:46.164Z,1008.25
2017-06-27T01:32:56.406Z,1008.28
2017-06-27T01:34:06.918Z,1008.26
2017-06-27T01:35:17.164Z,1008.32
2017-06-27T01:36:27.411Z,1008.35
2017-06-27T01:37:37.049Z,1008.33
2017-06-27T01:38:46.992Z,1008.32
2017-06-27T01:39:57.507Z,1008.32
2017-06-27T01:41:07.748Z,1008.32
2017-06-27T01:42:17.699Z,1008.34
2017-06-27T01:43:27.950Z,1008.37
2017-06-27T01:44:37.889Z,1008.37
2017-06-27T01:45:48.073Z,1008.33
2017-06-27T01:46:58.031Z,1008.35
2017-06-27T01:48:07.987Z,1008.36
2017-06-27T01:49:18.240Z,1008.37
2017-06-27T01:50:28.494Z,1008.4
2017-06-27T01:51:38.994Z,1008.39
2017-06-27T01:52:49.255Z,1008.37
2017-06-27T01:53:59.505Z,1008.37
2017-06-27T01:55:09.479Z,1008.37
2017-06-27T01:56:19.422Z,1008.41
2017-06-27T01:57:29.928Z,1008.41
2017-06-27T01:58:39.869Z,1008.42
2017-06-27T01:59:49.816Z,1008.38
2017-06-27T02:01:00.067Z,1008.41
2017-06-27T02:02:10.315Z,1008.4
2017-06-27T02:03:20.524Z,1008.43
2017-06-27T02:04:30.780Z,1008.38
2017-06-27T02:05:40.731Z,1008.38
2017-06-27T02:06:50.694Z,1008.4
2017-06-27T02:08:00.966Z,1008.37
2017-06-27T02:09:11.471Z,1008.36
2017-06-27T02:10:21.733Z,1008.41
2017-06-27T02:11:31.981Z,1008.44
2017-06-27T02:12:42.245Z,1008.46
2017-06-27T02:13:52.196Z,1008.46
2017-06-27T02:15:02.394Z,1008.45
2017-06-27T02:16:12.679Z,1008.48
2017-06-27T02:17:22.932Z,1008.49
2017-06-27T02:18:33.189Z,1008.47
2017-06-27T02:19:43.128Z,1008.49
2017-06-27T02:20:53.639Z,1008.48
2017-06-27T02:22:03.918Z,1008.51
2017-06-27T02:23:14.179Z,1008.52
2017-06-27T02:24:24.445Z,1008.54
2017-06-27T02:25:34.704Z,1008.53
2017-06-27T02:26:44.903Z,1008.52
2017-06-27T02:27:55.153Z,1008.51
2017-06-27T02:29:05.099Z,1008.48
2017-06-27T02:30:15.370Z,1008.51
2017-06-27T02:31:25.624Z,1008.51
2017-06-27T02:32:35.832Z,1008.49
2017-06-27T02:33:45.773Z,1008.52
2017-06-27T02:34:56.026Z,1008.52
2017-06-27T02:36:06.282Z,1008.49
2017-06-27T02:37:16.253Z,1008.54
2017-06-27T02:38:26.760Z,1008.48
2017-06-27T02:39:36.705Z,1008.52
2017-06-27T02:40:46.950Z,1008.49
2017-06-27T02:41:57.200Z,1008.52
2017-06-27T02:43:07.154Z,1008.52
2017-06-27T02:44:17.371Z,1008.49
2017-06-27T02:45:27.624Z,1008.51
2017-06-27T02:46:37.562Z,1008.51
2017-06-27T02:47:47.807Z,1008.49
2017-06-27T02:48:57.743Z,1008.45
2017-06-27T02:50:07.942Z,1008.43
2017-06-27T02:51:18.191Z,1008.48
2017-06-27T02:52:28.162Z,1008.55
2017-06-27T02:53:38.409Z,1008.5
2017-06-27T02:54:48.678Z,1008.53
2017-06-27T02:55:59.191Z,1008.55
2017-06-27T02:57:09.148Z,1008.57
2017-06-27T02:58:19.095Z,1008.58
2017-06-27T02:59:29.036Z,1008.59
2017-06-27T03:00:39.305Z,1008.63
2017-06-27T03:01:49.499Z,1008.62
2017-06-27T03:02:59.137Z,1008.61
2017-06-27T03:04:09.400Z,1008.62
2017-06-27T03:05:19.654Z,1008.64
2017-06-27T03:06:29.920Z,1008.65
2017-06-27T03:07:40.728Z,1008.64
2017-06-27T03:08:50.994Z,1008.65
2017-06-27T03:10:00.622Z,1008.64
2017-06-27T03:11:10.873Z,1008.64
2017-06-27T03:12:21.132Z,1008.64
2017-06-27T03:13:31.327Z,1008.68
2017-06-27T03:14:40.964Z,1008.68
2017-06-27T03:15:51.216Z,1008.67
2017-06-27T03:17:01.160Z,1008.7
2017-06-27T03:18:11.425Z,1008.68
2017-06-27T03:19:21.988Z,1008.7
2017-06-27T03:20:32.230Z,1008.68
2017-06-27T03:21:42.486Z,1008.71
2017-06-27T03:22:52.132Z,1008.74
2017-06-27T03:24:02.092Z,1008.76
2017-06-27T03:25:12.589Z,1008.76
2017-06-27T03:26:22.833Z,1008.77
2017-06-27T03:27:33.099Z,1008.73
2017-06-27T03:28:43.355Z,1008.76
2017-06-27T03:29:53.615Z,1008.75
2017-06-27T03:31:03.814Z,1008.75
2017-06-27T03:32:14.081Z,1008.75
2017-06-27T03:33:24.337Z,1008.78
2017-06-27T03:34:34.285Z,1008.75
2017-06-27T03:35:44.558Z,1008.74
2017-06-27T03:36:55.070Z,1008.75
2017-06-27T03:38:05.323Z,1008.8
2017-06-27T03:39:15.266Z,1008.83
2017-06-27T03:40:25.524Z,1008.8
2017-06-27T03:41:35.787Z,1008.81
2017-06-27T03:42:45.989Z,1008.81
2017-06-27T03:43:56.235Z,1008.76
2017-06-27T03:45:06.505Z,1008.79
2017-06-27T03:46:16.772Z,1008.78
2017-06-27T03:47:27.028Z,1008.83
2017-06-27T03:48:37.551Z,1008.8
2017-06-27T03:49:47.510Z,1008.78
2017-06-27T03:50:57.454Z,1008.72
2017-06-27T03:52:07.706Z,1008.77
2017-06-27T03:53:17.971Z,1008.78
2017-06-27T03:54:28.172Z,1008.8
2017-06-27T03:55:38.433Z,1008.82
2017-06-27T03:56:48.388Z,1008.83
2017-06-27T03:57:58.649Z,1008.85
2017-06-27T03:59:08.902Z,1008.83
2017-06-27T04:00:19.403Z,1008.81
2017-06-27T04:01:29.346Z,1008.78
2017-06-27T04:02:38.979Z,1008.8
2017-06-27T04:03:49.231Z,1008.8
2017-06-27T04:04:59.487Z,1008.76
2017-06-27T04:06:09.989Z,1008.76
2017-06-27T04:07:20.252Z,1008.73
2017-06-27T04:08:30.507Z,1008.77
2017-06-27T04:09:40.776Z,1008.74
2017-06-27T04:10:50.718Z,1008.77
2017-06-27T04:12:00.610Z,1008.76
2017-06-27T04:13:10.853Z,1008.77
2017-06-27T04:14:20.482Z,1008.79
2017-06-27T04:15:30.739Z,1008.8
2017-06-27T04:16:40.996Z,1008.81
2017-06-27T04:17:51.174Z,1008.8
2017-06-27T04:19:01.453Z,1008.77
2017-06-27T04:20:11.087Z,1008.8
2017-06-27T04:21:21.347Z,1008.77
2017-06-27T04:22:31.615Z,1008.78
2017-06-27T04:23:42.131Z,1008.73
2017-06-27T04:24:52.425Z,1008.72
2017-06-27T04:26:02.945Z,1008.71
2017-06-27T04:27:12.895Z,1008.75
2017-06-27T04:28:23.138Z,1008.75
2017-06-27T04:29:33.642Z,1008.79
2017-06-27T04:30:43.901Z,1008.71
2017-06-27T04:31:53.885Z,1008.72
2017-06-27T04:33:04.157Z,1008.65
2017-06-27T04:34:13.790Z,1008.63
2017-06-27T04:35:24.297Z,1008.64
2017-06-27T04:36:34.561Z,1008.64
2017-06-27T04:37:44.836Z,1008.59
2017-06-27T04:38:54.794Z,1008.59
2017-06-27T04:40:04.747Z,1008.56
2017-06-27T04:41:15.265Z,1008.54
2017-06-27T04:42:25.522Z,1008.55
2017-06-27T04:43:35.791Z,1008.58
2017-06-27T04:44:46.059Z,1008.59
2017-06-27T04:45:56.313Z,1008.6
2017-06-27T04:47:06.825Z,1008.62
2017-06-27T04:48:16.766Z,1008.62
2017-06-27T04:49:27.022Z,1008.6
2017-06-27T04:50:37.289Z,1008.57
2017-06-27T04:51:46.931Z,1008.54
2017-06-27T04:52:57.449Z,1008.54
2017-06-27T04:54:07.703Z,1008.52
2017-06-27T04:55:17.957Z,1008.49
2017-06-27T04:56:27.927Z,1008.46
2017-06-27T04:57:38.190Z,1008.48
2017-06-27T04:58:48.387Z,1008.5
2017-06-27T04:59:58.332Z,1008.47
2017-06-27T05:01:08.279Z,1008.48
2017-06-27T05:02:18.547Z,1008.51
2017-06-27T05:03:28.805Z,1008.54
2017-06-27T05:04:39.298Z,1008.53
2017-06-27T05:05:49.547Z,1008.56
2017-06-27T05:06:59.491Z,1008.55
2017-06-27T05:08:09.130Z,1008.57
2017-06-27T05:09:19.094Z,1008.58
2017-06-27T05:10:29.604Z,1008.57
2017-06-27T05:11:39.872Z,1008.58
2017-06-27T05:12:49.833Z,1008.59
2017-06-27T05:14:00.106Z,1008.59
2017-06-27T05:15:10.368Z,1008.53
2017-06-27T05:16:20.570Z,1008.52
2017-06-27T05:17:30.820Z,1008.5
2017-06-27T05:18:41.071Z,1008.51
2017-06-27T05:19:51.327Z,1008.54
2017-06-27T05:21:01.579Z,1008.59
2017-06-27T05:22:12.070Z,1008.55
2017-06-27T05:23:22.335Z,1008.55
2017-06-27T05:24:32.605Z,1008.51
2017-06-27T05:25:42.870Z,1008.51
2017-06-27T05:26:53.123Z,1008.5
2017-06-27T05:28:03.642Z,1008.49
2017-06-27T05:29:13.900Z,1008.5
2017-06-27T05:30:24.151Z,1008.53
2017-06-27T05:31:34.420Z,1008.54
2017-06-27T05:32:44.381Z,1008.54
2017-06-27T05:33:54.893Z,1008.6
2017-06-27T05:35:05.154Z,1008.52
2017-06-27T05:36:15.401Z,1008.55
2017-06-27T05:37:25.338Z,1008.55
2017-06-27T05:38:35.604Z,1008.56
2017-06-27T05:39:46.126Z,1008.57
2017-06-27T05:40:56.411Z,1008.59
2017-06-27T05:42:06.658Z,1008.65
2017-06-27T05:43:16.292Z,1008.62
2017-06-27T05:44:26.569Z,1008.63
2017-06-27T05:45:37.360Z,1008.65
2017-06-27T05:46:47.651Z,1008.6
2017-06-27T05:47:57.614Z,1008.59
2017-06-27T05:49:07.572Z,1008.61
2017-06-27T05:50:17.843Z,1008.64
2017-06-27T05:51:28.062Z,1008.64
2017-06-27T05:52:38.340Z,1008.63
2017-06-27T05:53:48.610Z,1008.65
2017-06-27T05:54:58.556Z,1008.64
2017-06-27T05:56:08.502Z,1008.7
2017-06-27T05:57:18.728Z,1008.73
2017-06-27T05:58:28.992Z,1008.7
2017-06-27T05:59:39.275Z,1008.75
2017-06-27T06:00:49.525Z,1008.77
2017-06-27T06:01:59.802Z,1008.79
2017-06-27T06:03:10.333Z,1008.77
2017-06-27T06:04:20.601Z,1008.79
2017-06-27T06:05:30.549Z,1008.81
2017-06-27T06:06:40.807Z,1008.8
2017-06-27T06:07:51.068Z,1008.8
2017-06-27T06:09:01.582Z,1008.83
2017-06-27T06:10:11.539Z,1008.83
2017-06-27T06:11:21.834Z,1008.83
2017-06-27T06:12:31.792Z,1008.84
2017-06-27T06:13:41.757Z,1008.86
2017-06-27T06:14:52.294Z,1008.88
2017-06-27T06:16:02.291Z,1008.91
2017-06-27T06:17:11.936Z,1008.85
2017-06-27T06:18:22.225Z,1008.89
2017-06-27T06:19:32.512Z,1008.89
2017-06-27T06:20:43.020Z,1008.9
2017-06-27T06:21:53.294Z,1008.91
2017-06-27T06:23:03.568Z,1008.95
2017-06-27T06:24:13.523Z,1008.95
2017-06-27T06:25:23.167Z,1008.92
2017-06-27T06:26:33.388Z,1008.98
2017-06-27T06:27:43.337Z,1008.95
2017-06-27T06:28:53.294Z,1008.98
2017-06-27T06:30:03.575Z,1008.96
2017-06-27T06:31:13.558Z,1008.97
2017-06-27T06:32:23.469Z,1008.91
2017-06-27T06:33:33.426Z,1008.9
2017-06-27T06:34:43.717Z,1008.9
2017-06-27T06:35:54.004Z,1008.86
2017-06-27T06:37:04.236Z,1008.88
2017-06-27T06:38:14.813Z,1008.84
2017-06-27T06:39:24.793Z,1008.83
2017-06-27T06:40:34.465Z,1008.79
2017-06-27T06:41:44.122Z,1008.83
2017-06-27T06:42:54.403Z,1008.81
2017-06-27T06:44:04.965Z,1008.82
2017-06-27T06:45:15.000Z,1008.84
2017-06-27T06:46:25.288Z,1008.82
2017-06-27T06:47:35.560Z,1008.82
2017-06-27T06:48:45.246Z,1008.87
2017-06-27T06:49:55.831Z,1008.87
2017-06-27T06:51:06.103Z,1008.84
2017-06-27T06:52:15.834Z,1008.87
2017-06-27T06:53:26.110Z,1008.86
2017-06-27T06:54:36.388Z,1008.88
2017-06-27T06:55:46.923Z,1008.88
2017-06-27T06:56:56.889Z,1008.86
2017-06-27T06:58:07.204Z,1008.9
2017-06-27T06:59:17.472Z,1008.88
2017-06-27T07:00:27.730Z,1008.88
2017-06-27T07:01:37.973Z,1008.87
2017-06-27T07:02:47.936Z,1008.9
2017-06-27T07:03:57.895Z,1008.88
2017-06-27T07:05:07.852Z,1008.88
2017-06-27T07:06:17.821Z,1008.88
2017-06-27T07:07:28.071Z,1008.89
2017-06-27T07:08:38.371Z,1008.87
2017-06-27T07:09:48.693Z,1008.87
2017-06-27T07:10:58.357Z,1008.85
2017-06-27T07:12:08.681Z,1008.87
2017-06-27T07:13:19.293Z,1008.9
2017-06-27T07:14:29.575Z,1008.88
2017-06-27T07:15:39.869Z,1008.9
2017-06-27T07:16:49.885Z,1008.93
2017-06-27T07:17:59.855Z,1008.92
2017-06-27T07:19:10.370Z,1008.93
2017-06-27T07:20:20.655Z,1008.95
2017-06-27T07:21:30.972Z,1008.93
2017-06-27T07:22:40.966Z,1008.98
2017-06-27T07:23:51.263Z,1008.98
2017-06-27T07:25:01.840Z,1008.93
2017-06-27T07:26:12.112Z,1008.96
2017-06-27T07:27:22.409Z,1008.91
2017-06-27T07:28:32.381Z,1008.85
2017-06-27T07:29:42.332Z,1008.86
2017-06-27T07:30:52.575Z,1008.84
2017-06-27T07:32:02.551Z,1008.86
2017-06-27T07:33:12.531Z,1008.85
2017-06-27T07:34:22.804Z,1008.83
2017-06-27T07:35:33.078Z,1008.84
2017-06-27T07:36:43.596Z,1008.84
2017-06-27T07:37:53.590Z,1008.86
2017-06-27T07:39:03.854Z,1008.84
2017-06-27T07:40:13.822Z,1008.79
2017-06-27T07:41:24.097Z,1008.84
2017-06-27T07:42:33.992Z,1008.82
2017-06-27T07:43:44.279Z,1008.79
2017-06-27T07:44:54.551Z,1008.8
2017-06-27T07:46:04.235Z,1008.79
2017-06-27T07:47:14.588Z,1008.79
2017-06-27T07:48:25.135Z,1008.73
2017-06-27T07:49:35.408Z,1008.74
2017-06-27T07:50:45.680Z,1008.73
2017-06-27T07:51:55.963Z,1008.74
2017-06-27T07:53:06.248Z,1008.73
2017-06-27T07:54:16.774Z,1008.74
2017-06-27T07:55:26.752Z,1008.72
2017-06-27T07:56:37.026Z,1008.74
2017-06-27T07:57:47.312Z,1008.76
2017-06-27T07:58:57.587Z,1008.79
2017-06-27T08:00:08.111Z,1008.81
2017-06-27T08:01:18.368Z,1008.75
2017-06-27T08:02:28.034Z,1008.76
2017-06-27T08:03:38.047Z,1008.73
2017-06-27T08:04:48.321Z,1008.72
2017-06-27T08:05:58.870Z,1008.76
2017-06-27T08:07:09.134Z,1008.76
2017-06-27T08:08:19.439Z,1008.8
2017-06-27T08:09:29.414Z,1008.76
2017-06-27T08:10:39.370Z,1008.78
2017-06-27T08:11:49.959Z,1008.73
2017-06-27T08:12:59.920Z,1008.78
2017-06-27T08:14:09.879Z,1008.78
2017-06-27T08:15:20.163Z,1008.73
2017-06-27T08:16:30.424Z,1008.69
2017-06-27T08:17:40.657Z,1008.72
2017-06-27T08:18:50.955Z,1008.71
2017-06-27T08:20:00.904Z,1008.71
2017-06-27T08:21:10.900Z,1008.73
2017-06-27T08:22:20.874Z,1008.69
2017-06-27T08:23:30.807Z,1008.69
2017-06-27T08:24:41.109Z,1008.7
2017-06-27T08:25:51.387Z,1008.68
2017-06-27T08:27:01.715Z,1008.67
2017-06-27T08:28:12.024Z,1008.69
2017-06-27T08:29:21.937Z,1008.69
2017-06-27T08:30:32.256Z,1008.65
2017-06-27T08:31:41.925Z,1008.63
2017-06-27T08:32:52.259Z,1008.6
2017-06-27T08:34:02.539Z,1008.6
2017-06-27T08:35:13.154Z,1008.61
2017-06-27T08:36:23.111Z,1008.58
2017-06-27T08:37:32.811Z,1008.58
2017-06-27T08:38:43.142Z,1008.58
2017-06-27T08:39:52.811Z,1008.64
2017-06-27T08:41:03.354Z,1008.65
2017-06-27T08:42:13.649Z,1008.59
2017-06-27T08:43:23.349Z,1008.55
2017-06-27T08:44:33.347Z,1008.57
2017-06-27T08:45:43.657Z,1008.56
2017-06-27T08:46:54.228Z,1008.54
2017-06-27T08:48:04.523Z,1008.52
2017-06-27T08:49:14.812Z,1008.56
2017-06-27T08:50:24.815Z,1008.53
2017-06-27T08:51:35.114Z,1008.56
2017-06-27T08:52:45.335Z,1008.58
2017-06-27T08:53:55.639Z,1008.53
2017-06-27T08:55:05.610Z,1008.53
2017-06-27T08:56:15.913Z,1008.54
2017-06-27T08:57:26.226Z,1008.56
2017-06-27T08:58:36.410Z,1008.59
2017-06-27T08:59:46.649Z,1008.57
2017-06-27T09:00:56.901Z,1008.62
2017-06-27T09:02:06.235Z,1008.62
2017-06-27T09:03:16.556Z,1008.57
2017-06-27T09:04:27.101Z,1008.57
2017-06-27T09:05:37.373Z,1008.56
2017-06-27T09:06:47.322Z,1008.55
2017-06-27T09:07:57.868Z,1008.52
2017-06-27T09:09:07.512Z,1008.53
2017-06-27T09:10:17.493Z,1008.54
2017-06-27T09:11:27.816Z,1008.57
2017-06-27T09:12:38.067Z,1008.58
2017-06-27T09:13:48.033Z,1008.58
2017-06-27T09:14:57.977Z,1008.51
2017-06-27T09:16:08.484Z,1008.54
2017-06-27T09:17:18.408Z,1008.55
2017-06-27T09:18:28.334Z,1008.54
2017-06-27T09:19:38.251Z,1008.52
2017-06-27T09:20:48.185Z,1008.53
2017-06-27T09:21:58.638Z,1008.54
2017-06-27T09:23:08.785Z,1008.52
2017-06-27T09:24:19.096Z,1008.5
2017-06-27T09:25:29.414Z,1008.51
2017-06-27T09:26:39.344Z,1008.5
2017-06-27T09:27:49.831Z,1008.56
2017-06-27T09:29:00.072Z,1008.53
2017-06-27T09:30:10.013Z,1008.49
2017-06-27T09:31:20.260Z,1008.5
2017-06-27T09:32:30.380Z,1008.47
2017-06-27T09:33:40.263Z,1008.53
2017-06-27T09:34:50.204Z,1008.53
2017-06-27T09:36:00.173Z,1008.54
2017-06-27T09:37:10.500Z,1008.54
2017-06-27T09:38:20.428Z,1008.57
2017-06-27T09:39:30.614Z,1008.58
2017-06-27T09:40:40.841Z,1008.61
2017-06-27T09:41:50.802Z,1008.59
2017-06-27T09:43:00.755Z,1008.59
2017-06-27T09:44:11.036Z,1008.56
2017-06-27T09:45:21.548Z,1008.59
2017-06-27T09:46:31.504Z,1008.56
2017-06-27T09:47:41.464Z,1008.52
2017-06-27T09:48:51.753Z,1008.54
2017-06-27T09:50:02.039Z,1008.49
2017-06-27T09:51:12.533Z,1008.49
2017-06-27T09:52:22.779Z,1008.56
2017-06-27T09:53:33.031Z,1008.52
2017-06-27T09:54:43.356Z,1008.57
2017-06-27T09:55:53.643Z,1008.55
2017-06-27T09:57:04.173Z,1008.53
2017-06-27T09:58:14.485Z,1008.56
2017-06-27T09:59:24.790Z,1008.58
2017-06-27T10:00:34.778Z,1008.56
2017-06-27T10:01:45.090Z,1008.49
2017-06-27T10:02:55.628Z,1008.52
2017-06-27T10:04:05.598Z,1008.55
2017-06-27T10:05:15.905Z,1008.5
2017-06-27T10:06:26.212Z,1008.49
2017-06-27T10:07:36.480Z,1008.53
2017-06-27T10:08:47.006Z,1008.51
2017-06-27T10:09:57.326Z,1008.53
2017-06-27T10:11:07.620Z,1008.47
2017-06-27T10:12:17.897Z,1008.42
2017-06-27T10:13:27.859Z,1008.42
2017-06-27T10:14:38.441Z,1008.41
2017-06-27T10:15:48.423Z,1008.48
2017-06-27T10:16:58.698Z,1008.43
2017-06-27T10:18:08.663Z,1008.43
2017-06-27T10:19:18.648Z,1008.47
2017-06-27T10:20:29.399Z,1008.46
2017-06-27T10:21:39.709Z,1008.45
2017-06-27T10:22:50.005Z,1008.46
2017-06-27T10:24:00.294Z,1008.43
2017-06-27T10:25:10.279Z,1008.43
2017-06-27T10:26:20.820Z,1008.46
2017-06-27T10:27:30.463Z,1008.43
2017-06-27T10:28:40.422Z,1008.43
2017-06-27T10:29:50.696Z,1008.41
2017-06-27T10:31:00.998Z,1008.44
2017-06-27T10:32:11.516Z,1008.47
2017-06-27T10:33:21.488Z,1008.41
2017-06-27T10:34:31.768Z,1008.4
2017-06-27T10:35:42.072Z,1008.41
2017-06-27T10:36:52.362Z,1008.4
2017-06-27T10:38:02.888Z,1008.35
2017-06-27T10:39:13.200Z,1008.35
2017-06-27T10:40:23.167Z,1008.31
2017-06-27T10:41:33.466Z,1008.31
2017-06-27T10:42:43.437Z,1008.33
2017-06-27T10:43:53.665Z,1008.3
2017-06-27T10:45:03.932Z,1008.27
2017-06-27T10:46:13.915Z,1008.23
2017-06-27T10:47:24.206Z,1008.22
2017-06-27T10:48:34.503Z,1008.21
2017-06-27T10:49:45.124Z,1008.22
2017-06-27T10:50:55.415Z,1008.27
2017-06-27T10:52:05.675Z,1008.21
2017-06-27T10:53:15.642Z,1008.23
2017-06-27T10:54:25.936Z,1008.21
2017-06-27T10:55:36.152Z,1008.18
2017-06-27T10:56:46.429Z,1008.13
2017-06-27T10:57:56.708Z,1008.16
2017-06-27T10:59:06.828Z,1008.17
2017-06-27T11:00:17.140Z,1008.13
2017-06-27T11:01:27.377Z,1008.11
2017-06-27T11:02:37.374Z,1008.06
2017-06-27T11:03:47.351Z,1008.05
2017-06-27T11:04:57.637Z,1008.09
2017-06-27T11:06:07.938Z,1008.06
2017-06-27T11:07:18.522Z,1008.04
2017-06-27T11:08:28.835Z,1008.06
2017-06-27T11:09:38.824Z,1008.08
2017-06-27T11:10:49.110Z,1008.07
2017-06-27T11:11:59.641Z,1008.05
2017-06-27T11:13:10.191Z,1008.05
2017-06-27T11:14:20.210Z,1008.01
2017-06-27T11:15:30.494Z,1007.97
2017-06-27T11:16:40.453Z,1007.93
2017-06-27T11:17:50.113Z,1008.03
2017-06-27T11:19:00.654Z,1008.01
2017-06-27T11:20:10.358Z,1007.96
2017-06-27T11:21:20.337Z,1007.99
2017-06-27T11:22:30.637Z,1007.95
2017-06-27T11:23:40.640Z,1007.9
2017-06-27T11:24:51.183Z,1007.92
2017-06-27T11:26:01.475Z,1007.78
2017-06-27T11:27:11.459Z,1007.83
2017-06-27T11:28:21.746Z,1007.88
2017-06-27T11:29:32.022Z,1007.9
2017-06-27T11:30:42.562Z,1007.82
2017-06-27T11:31:52.574Z,1007.8
2017-06-27T11:33:02.868Z,1007.78
2017-06-27T11:34:13.155Z,1007.75
2017-06-27T11:35:23.440Z,1007.79
2017-06-27T11:36:33.983Z,1007.79
2017-06-27T11:37:44.276Z,1007.76
2017-06-27T11:38:54.566Z,1007.75
2017-06-27T11:40:04.839Z,1007.72
2017-06-27T11:41:15.088Z,1007.67
2017-06-27T11:42:25.309Z,1007.69
2017-06-27T11:43:35.580Z,1007.68
2017-06-27T11:44:45.861Z,1007.67
2017-06-27T11:45:56.134Z,1007.65
2017-06-27T11:47:06.125Z,1007.68
2017-06-27T11:48:16.369Z,1007.61
2017-06-27T11:49:26.381Z,1007.62
2017-06-27T11:50:36.332Z,1007.62
2017-06-27T11:51:46.649Z,1007.56
2017-06-27T11:52:56.920Z,1007.53
2017-06-27T11:54:07.153Z,1007.52
2017-06-27T11:55:17.127Z,1007.55
2017-06-27T11:56:27.412Z,1007.5
2017-06-27T11:57:37.707Z,1007.55
2017-06-27T11:58:48.009Z,1007.52
2017-06-27T11:59:58.532Z,1007.47
2017-06-27T12:01:08.821Z,1007.43
2017-06-27T12:02:19.106Z,1007.4
2017-06-27T12:03:28.759Z,1007.41
2017-06-27T12:04:39.035Z,1007.39
2017-06-27T12:05:49.244Z,1007.37
2017-06-27T12:06:59.227Z,1007.4
2017-06-27T12:08:09.524Z,1007.38
2017-06-27T12:09:19.819Z,1007.33
2017-06-27T12:10:30.086Z,1007.38
2017-06-27T12:11:40.619Z,1007.34
2017-06-27T12:12:50.823Z,1007.34
2017-06-27T12:14:01.092Z,1007.25
2017-06-27T12:15:11.062Z,1007.31
2017-06-27T12:16:21.382Z,1007.28
2017-06-27T12:17:32.942Z,1007.31
2017-06-27T12:18:43.251Z,1007.31
2017-06-27T12:19:53.549Z,1007.28
2017-06-27T12:21:03.834Z,1007.27
2017-06-27T12:22:13.503Z,1007.23
2017-06-27T12:23:24.027Z,1007.23
2017-06-27T12:24:34.310Z,1007.27
2017-06-27T12:25:44.602Z,1007.28
2017-06-27T12:26:54.913Z,1007.25
2017-06-27T12:28:05.176Z,1007.24
2017-06-27T12:29:15.727Z,1007.24
2017-06-27T12:30:25.702Z,1007.21
2017-06-27T12:31:35.994Z,1007.17
2017-06-27T12:32:46.291Z,1007.17
2017-06-27T12:33:56.586Z,1007.21
2017-06-27T12:35:07.127Z,1007.2
2017-06-27T12:36:17.393Z,1007.18
2017-06-27T12:37:27.712Z,1007.21
2017-06-27T12:38:37.379Z,1007.23
2017-06-27T12:39:47.702Z,1007.19
2017-06-27T12:40:58.251Z,1007.2
2017-06-27T12:42:08.546Z,1007.16
2017-06-27T12:43:18.822Z,1007.18
2017-06-27T12:44:29.139Z,1007.15
2017-06-27T12:45:39.408Z,1007.13
2017-06-27T12:46:49.924Z,1007.11
2017-06-27T12:47:59.622Z,1007.12
2017-06-27T12:49:09.929Z,1007.08
2017-06-27T12:50:19.899Z,1007.09
2017-06-27T12:51:30.199Z,1007.09
2017-06-27T12:52:40.731Z,1007.06
2017-06-27T12:53:50.728Z,1007.06
2017-06-27T12:55:01.032Z,1007.07
2017-06-27T12:56:11.326Z,1007.05
2017-06-27T12:57:21.849Z,1007.03
2017-06-27T12:58:32.070Z,1007.01
2017-06-27T12:59:42.352Z,1007.04
2017-06-27T13:00:52.320Z,1006.94
2017-06-27T13:02:02.604Z,1006.95
2017-06-27T13:03:12.567Z,1006.97
2017-06-27T13:04:23.126Z,1006.94
2017-06-27T13:05:33.417Z,1006.99
2017-06-27T13:06:43.393Z,1006.98
2017-06-27T13:07:53.688Z,1006.94
2017-06-27T13:09:04.019Z,1006.92
2017-06-27T13:10:14.242Z,1006.9
2017-06-27T13:11:24.532Z,1006.94
2017-06-27T13:12:34.818Z,1006.92
2017-06-27T13:13:45.338Z,1006.92
2017-06-27T13:14:55.325Z,1006.91
2017-06-27T13:16:05.881Z,1006.92
2017-06-27T13:17:16.187Z,1006.87
2017-06-27T13:18:26.468Z,1006.86
2017-06-27T13:19:36.764Z,1006.86
2017-06-27T13:20:46.413Z,1006.87
2017-06-27T13:21:56.945Z,1006.81
2017-06-27T13:23:07.224Z,1006.81
2017-06-27T13:24:17.192Z,1006.82
2017-06-27T13:25:27.469Z,1006.83
2017-06-27T13:26:37.750Z,1006.83
2017-06-27T13:27:48.343Z,1006.82
2017-06-27T13:28:58.622Z,1006.79
2017-06-27T13:30:08.585Z,1006.75
2017-06-27T13:31:18.890Z,1006.73
2017-06-27T13:32:29.187Z,1006.74
2017-06-27T13:33:39.400Z,1006.75
2017-06-27T13:34:49.901Z,1006.72
2017-06-27T13:36:00.204Z,1006.77
2017-06-27T13:37:10.489Z,1006.79
2017-06-27T13:38:20.462Z,1006.76
2017-06-27T13:39:30.691Z,1006.76
2017-06-27T13:40:40.979Z,1006.71
2017-06-27T13:41:50.936Z,1006.7
2017-06-27T13:43:01.225Z,1006.66
2017-06-27T13:44:11.182Z,1006.66
2017-06-27T13:45:21.419Z,1006.65
2017-06-27T13:46:31.700Z,1006.63
2017-06-27T13:47:41.990Z,1006.66
2017-06-27T13:48:52.272Z,1006.67
2017-06-27T13:50:02.592Z,1006.67
2017-06-27T13:51:12.866Z,1006.64
2017-06-27T13:52:23.154Z,1006.61
2017-06-27T13:53:33.451Z,1006.62
2017-06-27T13:54:43.734Z,1006.57
2017-06-27T13:55:53.712Z,1006.58
2017-06-27T13:57:04.259Z,1006.56
2017-06-27T13:58:14.233Z,1006.53
2017-06-27T13:59:24.508Z,1006.55
2017-06-27T14:00:34.475Z,1006.46
2017-06-27T14:01:44.751Z,1006.42
2017-06-27T14:02:54.988Z,1006.45
2017-06-27T14:04:05.253Z,1006.38
2017-06-27T14:05:15.217Z,1006.44
2017-06-27T14:06:25.497Z,1006.45
2017-06-27T14:07:35.805Z,1006.46
2017-06-27T14:08:46.343Z,1006.43
2017-06-27T14:09:56.637Z,1006.46
2017-06-27T14:11:06.602Z,1006.42